Huntsville, AL

4:25 AM CDT on May 28, 2015 (GMT -0500)
Pryor Regional | | Change Station
CLOSE
Current Station
Airport
Location: Decatur,
Elevation: 591 ft
Nearby Weather Stations

Elev 591 ft 34.65 °N, 86.95 °W | Updated 32 minutes ago

Overcast
Overcast
66 °F
Feels Like 66 °F
N
4
Wind Variable Wind from North

Today
High -- | Low -- °F
--% Chance of Precip.
Yesterday
High -- | Low -- °F
Precip. -- in
5:36 AM 7:52 PM
Waxing Gibbous, 74% visible
Pressure 30.13 in
Visibility 10.0 miles
Clouds Scattered Clouds 11000 ft
Dew Point 65 °F
Humidity 96%
Rainfall 0.01 in
Snow Depth Not available.
UV 0 out of 12
Pollen 5.20 out of 12
Air Quality Not available.
Flu Activity Sporadic
METAR KDCU 280853Z AUTO 01003KT 10SM SCT110 19/18 A3015 RMK AO2 SLP202 T01890183 53002

More Conditions Fewer Conditions

Pressure 30.13 in
Visibility 10.0 miles
Clouds Scattered Clouds 11000 ft
Dew Point 65 °F
Humidity 96%
Rainfall 0.01 in
Snow Depth Not available.
UV 0 out of 12
Pollen 5.20 out of 12
Air Quality Not available.
Flu Activity Sporadic
METAR KDCU 280853Z AUTO 01003KT 10SM SCT110 19/18 A3015 RMK AO2 SLP202 T01890183 53002

More Conditions Fewer Conditions

10-Day Weather Forecast

Almanac

Astronomy

May. 28, 2015 Rise Set
Actual Time
Civil Twilight
Nautical Twilight
Astronomical Twilight
Moon
Length of Visible Light
Length of Day
Tomorrow will be .
, % of the Moon is Illuminated

Today's Extremes

State Highs State Lows

Community

WunderPhotos

Upload Photos

1,824,935 photos uploaded!

WunderBlogs® & News

Nearby

Air Quality

  Air Quality AQ Index Pollutant
Not available.

Snow Depth

Station Depth Elevation

Earthquake Activity

City Distance Mag. Time & Date
Minimum magnitude displayed is 2.5.

Coastal Water Temperatures

Place Temperature

Stations

Nearby Weather Stations

Station Location Temp. Windchill Dew Point Humidity Wind Precip. Elev Updated Type